Time;durP1;ratioP1;P1;durP2;ratioP2;P2;SDS_P1;SDS_P2;PMS_P1;PMS_P2;Temp;Humidity;BMP_temperature;BMP_pressure;BME280_temperature;BME280_humidity;BME280_pressure;Samples;Min_cycle;Max_cycle;Signal;HPM_P1;HPM_P2
2023/09/03 00:02:26;;;;;;;21.27;12.50;;;;;;;;;;5017280;28;20205;-89
2023/09/03 00:04:53;;;;;;;19.75;13.13;;;;;;;;;;5017220;28;20280;-89
2023/09/03 00:07:20;;;;;;;18.25;12.50;;;;;;;;;;5017210;28;20224;-89
2023/09/03 00:09:48;;;;;;;20.13;13.77;;;;;;;;;;5013191;28;20289;-89
2023/09/03 00:12:15;;;;;;;20.10;13.75;;;;;;;;;;5000197;28;20302;-90
2023/09/03 00:14:44;;;;;;;22.90;13.13;;;;;;;;;;4990953;28;20619;-89
2023/09/03 00:17:14;;;;;;;20.20;13.27;;;;;;;;;;4998720;28;20238;-89
2023/09/03 00:19:41;;;;;;;23.92;13.88;;;;;;;;;;5000845;28;20210;-92
2023/09/03 00:22:09;;;;;;;23.20;13.98;;;;;;;;;;5012114;28;20240;-91
2023/09/03 00:24:36;;;;;;;19.55;14.40;;;;;;;;;;5020564;28;20227;-92
2023/09/03 00:27:04;;;;;;;21.58;13.70;;;;;;;;;;5021248;28;20217;-90
2023/09/03 00:29:32;;;;;;;20.83;13.80;;;;;;;;;;5020163;28;20193;-91
2023/09/03 00:32:01;;;;;;;21.45;14.13;;;;;;;;;;5018565;28;20288;-92
2023/09/03 00:34:28;;;;;;;20.17;13.70;;;;;;;;;;5016495;28;20287;-91
2023/09/03 00:36:55;;;;;;;24.45;14.95;;;;;;;;;;5016082;28;20849;-92
2023/09/03 00:39:23;;;;;;;20.88;14.35;;;;;;;;;;5016518;28;20232;-90
2023/09/03 00:41:50;;;;;;;22.88;14.65;;;;;;;;;;4998212;28;20233;-91
2023/09/03 00:44:18;;;;;;;21.25;14.80;;;;;;;;;;5016046;28;20217;-90
2023/09/03 00:46:45;;;;;;;24.63;16.17;;;;;;;;;;5016271;28;20236;-91
2023/09/03 00:49:16;;;;;;;23.25;16.17;;;;;;;;;;5015964;28;20193;-90
2023/09/03 00:51:43;;;;;;;24.23;16.85;;;;;;;;;;5015390;28;20236;-90
2023/09/03 00:54:10;;;;;;;27.95;17.00;;;;;;;;;;5015447;28;20224;-90
2023/09/03 00:56:38;;;;;;;26.67;17.35;;;;;;;;;;5015392;28;20978;-88
2023/09/03 00:59:07;;;;;;;26.48;18.58;;;;;;;;;;5015806;28;20289;-91
2023/09/03 01:01:35;;;;;;;27.75;17.67;;;;;;;;;;5015476;28;20201;-90
2023/09/03 01:04:03;;;;;;;27.75;18.52;;;;;;;;;;5001236;28;20627;-90
2023/09/03 01:06:32;;;;;;;26.80;17.75;;;;;;;;;;4995947;28;20293;-90
2023/09/03 01:08:59;;;;;;;27.48;18.00;;;;;;;;;;4995746;28;20623;-89
2023/09/03 01:11:31;;;;;;;28.13;18.92;;;;;;;;;;4995557;28;20280;-89
2023/09/03 01:14:02;;;;;;;31.40;19.63;;;;;;;;;;4996311;28;20667;-90
2023/09/03 01:16:34;;;;;;;27.70;19.15;;;;;;;;;;4996081;28;20217;-89
2023/09/03 01:19:02;;;;;;;34.13;20.08;;;;;;;;;;5002564;28;20198;-90
2023/09/03 01:21:50;;;;;;;29.85;18.98;;;;;;;;;;4979846;28;20236;-91
2023/09/03 01:24:25;;;;;;;30.75;20.15;;;;;;;;;;5014928;28;20206;-90
2023/09/03 01:26:59;;;;;;;28.13;18.88;;;;;;;;;;5014735;28;20296;-88
2023/09/03 01:29:29;;;;;;;31.02;19.80;;;;;;;;;;5015032;28;20673;-90
2023/09/03 01:31:57;;;;;;;29.65;19.27;;;;;;;;;;5008294;28;20225;-90
2023/09/03 01:34:26;;;;;;;30.42;20.25;;;;;;;;;;4997515;28;20280;-90
2023/09/03 01:36:53;;;;;;;35.47;19.92;;;;;;;;;;5011973;28;20229;-90
2023/09/03 01:39:21;;;;;;;31.15;19.75;;;;;;;;;;4995402;28;20206;-90
2023/09/03 01:41:49;;;;;;;33.42;19.70;;;;;;;;;;4995283;28;20685;-92
2023/09/03 01:44:16;;;;;;;32.13;19.88;;;;;;;;;;4995302;28;20281;-90
2023/09/03 01:46:50;;;;;;;31.80;19.15;;;;;;;;;;4995471;28;20229;-91
2023/09/03 01:49:27;;;;;;;33.47;19.02;;;;;;;;;;4999229;28;20623;-90
2023/09/03 01:52:00;;;;;;;33.55;19.90;;;;;;;;;;5014378;28;20220;-90
2023/09/03 01:54:29;;;;;;;30.48;19.27;;;;;;;;;;5015055;28;20220;-90
2023/09/03 01:56:59;;;;;;;32.95;20.35;;;;;;;;;;5014535;28;20221;-90
2023/09/03 01:59:32;;;;;;;31.83;19.63;;;;;;;;;;5014666;28;20233;-90
2023/09/03 02:02:01;;;;;;;32.88;19.75;;;;;;;;;;5002662;28;20209;-91
2023/09/03 02:04:29;;;;;;;30.58;18.85;;;;;;;;;;4995420;28;20194;-91
2023/09/03 02:06:56;;;;;;;29.13;18.48;;;;;;;;;;4994998;28;20248;-90
2023/09/03 02:09:24;;;;;;;31.75;18.83;;;;;;;;;;4994077;28;20670;-90
2023/09/03 02:11:52;;;;;;;36.10;19.52;;;;;;;;;;4994778;28;20240;-91
2023/09/03 02:14:19;;;;;;;31.70;18.92;;;;;;;;;;4994330;28;20213;-91
2023/09/03 02:16:47;;;;;;;32.70;19.83;;;;;;;;;;4997058;28;20218;-90
2023/09/03 02:19:16;;;;;;;30.60;18.55;;;;;;;;;;5014256;28;20221;-90
2023/09/03 02:21:44;;;;;;;28.73;18.85;;;;;;;;;;4998706;28;20350;-90
2023/09/03 02:24:11;;;;;;;29.25;18.60;;;;;;;;;;5009128;28;20205;-89
2023/09/03 02:26:42;;;;;;;31.05;19.05;;;;;;;;;;5013997;28;20287;-90
2023/09/03 02:29:09;;;;;;;33.50;19.15;;;;;;;;;;5013733;28;20244;-90
2023/09/03 02:31:37;;;;;;;30.20;19.35;;;;;;;;;;5014253;28;20197;-90
2023/09/03 02:34:06;;;;;;;32.92;18.90;;;;;;;;;;5014427;28;20605;-89
2023/09/03 02:36:35;;;;;;;31.15;18.90;;;;;;;;;;5014257;28;20237;-89
2023/09/03 02:39:03;;;;;;;33.17;19.38;;;;;;;;;;4994441;28;20259;-90
2023/09/03 02:41:31;;;;;;;33.53;18.30;;;;;;;;;;4995478;28;20624;-89
2023/09/03 02:43:58;;;;;;;29.50;18.52;;;;;;;;;;4996341;28;20209;-90
2023/09/03 02:46:26;;;;;;;31.80;18.10;;;;;;;;;;4996302;28;20201;-89
2023/09/03 02:48:54;;;;;;;33.05;18.80;;;;;;;;;;4997784;28;20202;-91
2023/09/03 02:51:21;;;;;;;30.10;18.52;;;;;;;;;;5014018;28;20193;-91
2023/09/03 02:53:51;;;;;;;30.52;18.95;;;;;;;;;;5013159;28;20292;-91
2023/09/03 02:56:19;;;;;;;35.08;19.73;;;;;;;;;;5014062;28;20224;-91
2023/09/03 02:58:48;;;;;;;33.72;18.67;;;;;;;;;;5013716;28;20264;-90
2023/09/03 03:01:17;;;;;;;33.55;18.85;;;;;;;;;;5013767;28;20225;-91
2023/09/03 03:03:44;;;;;;;30.95;17.63;;;;;;;;;;5014955;28;20236;-91
2023/09/03 03:06:12;;;;;;;25.00;16.30;;;;;;;;;;5002749;28;20276;-90
2023/09/03 03:08:40;;;;;;;30.65;16.85;;;;;;;;;;5000658;28;20201;-91
2023/09/03 03:11:09;;;;;;;26.60;16.13;;;;;;;;;;5008944;28;20232;-90
2023/09/03 03:13:37;;;;;;;25.90;16.15;;;;;;;;;;5017778;28;20193;-91
2023/09/03 03:16:08;;;;;;;28.00;16.90;;;;;;;;;;5017868;28;20272;-90
2023/09/03 03:18:36;;;;;;;32.40;17.88;;;;;;;;;;5017646;28;20315;-91
2023/09/03 03:21:08;;;;;;;31.80;17.27;;;;;;;;;;5017494;28;20576;-91
2023/09/03 03:23:35;;;;;;;25.88;15.70;;;;;;;;;;5000673;28;20276;-91
2023/09/03 03:26:03;;;;;;;27.15;16.00;;;;;;;;;;5018135;28;20268;-91
2023/09/03 03:28:33;;;;;;;27.02;16.30;;;;;;;;;;5017714;28;20243;-92
2023/09/03 03:31:09;;;;;;;29.50;17.63;;;;;;;;;;5017482;28;20288;-90
2023/09/03 03:33:36;;;;;;;30.35;17.70;;;;;;;;;;5003202;28;20311;-93
2023/09/03 03:36:04;;;;;;;36.58;18.45;;;;;;;;;;4997455;28;20229;-91
2023/09/03 03:38:32;;;;;;;37.22;18.70;;;;;;;;;;4997228;28;20260;-91
2023/09/03 03:41:08;;;;;;;35.80;19.98;;;;;;;;;;4997513;28;20225;-91
2023/09/03 03:43:37;;;;;;;37.15;19.77;;;;;;;;;;5009777;28;20197;-91
2023/09/03 03:46:05;;;;;;;39.00;19.80;;;;;;;;;;5017458;28;20201;-91
2023/09/03 03:48:32;;;;;;;39.13;19.55;;;;;;;;;;5017142;28;20232;-90
2023/09/03 03:51:00;;;;;;;35.90;19.15;;;;;;;;;;4999590;28;20221;-90
2023/09/03 03:53:27;;;;;;;32.70;17.88;;;;;;;;;;5016745;28;20231;-91
2023/09/03 03:55:59;;;;;;;33.88;18.92;;;;;;;;;;5015931;28;20229;-91
2023/09/03 03:58:26;;;;;;;35.50;18.75;;;;;;;;;;5016845;28;20239;-91
2023/09/03 04:00:55;;;;;;;35.30;18.35;;;;;;;;;;5001661;28;20257;-91
2023/09/03 04:03:24;;;;;;;33.60;17.25;;;;;;;;;;4997224;28;20225;-91
2023/09/03 04:05:58;;;;;;;32.08;17.73;;;;;;;;;;4979350;28;20667;-91
2023/09/03 04:08:25;;;;;;;29.95;16.42;;;;;;;;;;4997185;28;20279;-91
2023/09/03 04:10:59;;;;;;;35.85;17.75;;;;;;;;;;4997201;28;20629;-92
2023/09/03 04:13:27;;;;;;;32.17;18.05;;;;;;;;;;4996983;28;20221;-91
2023/09/03 04:15:56;;;;;;;31.70;17.50;;;;;;;;;;4996820;28;20213;-91
2023/09/03 04:18:23;;;;;;;28.70;17.60;;;;;;;;;;5010954;28;20232;-91
2023/09/03 04:20:52;;;;;;;26.33;16.50;;;;;;;;;;5017088;28;20276;-90
2023/09/03 04:23:20;;;;;;;28.25;16.90;;;;;;;;;;5018893;28;20198;-92
2023/09/03 04:25:47;;;;;;;32.58;16.65;;;;;;;;;;5018300;28;20201;-91
2023/09/03 04:28:15;;;;;;;26.33;15.98;;;;;;;;;;5018441;28;20718;-90
2023/09/03 04:30:43;;;;;;;27.95;16.63;;;;;;;;;;5016250;28;20292;-91
2023/09/03 04:33:12;;;;;;;26.95;16.55;;;;;;;;;;5016332;28;20217;-90
2023/09/03 04:35:39;;;;;;;30.58;17.42;;;;;;;;;;5015707;28;20235;-90
2023/09/03 04:38:07;;;;;;;27.98;16.98;;;;;;;;;;5016184;28;20314;-91
2023/09/03 04:40:35;;;;;;;28.33;15.57;;;;;;;;;;5016203;28;20228;-90
2023/09/03 04:43:03;;;;;;;27.48;16.00;;;;;;;;;;5015063;28;20201;-90
2023/09/03 04:45:30;;;;;;;28.90;15.70;;;;;;;;;;5016062;28;20295;-92
2023/09/03 04:47:58;;;;;;;23.80;14.50;;;;;;;;;;5015531;28;20199;-90
2023/09/03 04:50:28;;;;;;;26.73;15.85;;;;;;;;;;5004450;28;20254;-91
2023/09/03 04:52:56;;;;;;;23.50;15.43;;;;;;;;;;4996552;28;20189;-90
2023/09/03 04:55:24;;;;;;;24.15;15.18;;;;;;;;;;5009008;28;20208;-91
2023/09/03 04:57:51;;;;;;;24.85;15.35;;;;;;;;;;5017887;28;20263;-91
2023/09/03 05:00:19;;;;;;;24.45;15.35;;;;;;;;;;5018221;28;20272;-91
2023/09/03 05:02:48;;;;;;;23.77;14.88;;;;;;;;;;5018159;28;20197;-91
2023/09/03 05:05:15;;;;;;;25.45;15.02;;;;;;;;;;5017746;28;20663;-90
2023/09/03 05:07:44;;;;;;;29.73;16.35;;;;;;;;;;5016392;28;20720;-90
2023/09/03 05:10:12;;;;;;;26.42;15.88;;;;;;;;;;5015584;28;20193;-91
2023/09/03 05:12:40;;;;;;;25.33;15.73;;;;;;;;;;5015588;28;20228;-91
2023/09/03 05:15:09;;;;;;;26.67;16.55;;;;;;;;;;5015750;28;20659;-90
2023/09/03 05:17:36;;;;;;;27.52;16.95;;;;;;;;;;5014700;28;20232;-90
2023/09/03 05:20:04;;;;;;;27.55;16.90;;;;;;;;;;5015481;28;20226;-91
2023/09/03 05:22:31;;;;;;;25.63;16.15;;;;;;;;;;5015241;28;20224;-91
2023/09/03 05:25:00;;;;;;;31.52;17.25;;;;;;;;;;5015580;28;20233;-91
2023/09/03 05:27:30;;;;;;;28.58;17.10;;;;;;;;;;5014648;28;20757;-90
2023/09/03 05:29:57;;;;;;;27.40;16.10;;;;;;;;;;5014754;28;20223;-91
2023/09/03 05:32:25;;;;;;;28.83;16.10;;;;;;;;;;5015155;28;20224;-91
2023/09/03 05:34:53;;;;;;;25.63;16.05;;;;;;;;;;5014576;28;20235;-91
2023/09/03 05:37:20;;;;;;;29.77;16.83;;;;;;;;;;5013604;28;20666;-91
2023/09/03 05:39:49;;;;;;;22.83;14.77;;;;;;;;;;4997943;28;20218;-90
2023/09/03 05:42:18;;;;;;;22.70;14.60;;;;;;;;;;4998163;28;20221;-91
2023/09/03 05:44:46;;;;;;;22.83;14.50;;;;;;;;;;4997930;28;20248;-90
2023/09/03 05:47:18;;;;;;;23.63;15.13;;;;;;;;;;4995425;28;20230;-90
2023/09/03 05:49:46;;;;;;;23.05;15.00;;;;;;;;;;5014624;28;20304;-91
2023/09/03 05:52:13;;;;;;;23.33;14.50;;;;;;;;;;5014218;28;20201;-91
2023/09/03 05:54:41;;;;;;;22.02;14.25;;;;;;;;;;5014904;28;20189;-90
2023/09/03 05:57:09;;;;;;;22.33;14.18;;;;;;;;;;5014618;28;20201;-90
2023/09/03 05:59:38;;;;;;;21.00;13.43;;;;;;;;;;5014582;28;20635;-91
2023/09/03 06:02:05;;;;;;;19.92;13.52;;;;;;;;;;5014449;28;20288;-90
2023/09/03 06:04:33;;;;;;;19.17;13.35;;;;;;;;;;5014247;28;20243;-91
2023/09/03 06:07:00;;;;;;;18.67;12.80;;;;;;;;;;5014941;28;20287;-91
2023/09/03 06:09:28;;;;;;;21.00;13.50;;;;;;;;;;5014682;28;20220;-92
2023/09/03 06:11:55;;;;;;;17.02;12.80;;;;;;;;;;5014708;28;20209;-91
2023/09/03 06:14:23;;;;;;;16.48;12.30;;;;;;;;;;5014313;28;20259;-92
2023/09/03 06:16:53;;;;;;;14.90;11.63;;;;;;;;;;5013813;28;20225;-93
2023/09/03 06:19:22;;;;;;;14.02;10.93;;;;;;;;;;5014254;28;20225;-92
2023/09/03 06:21:49;;;;;;;12.93;9.82;;;;;;;;;;5014376;28;20197;-92
2023/09/03 06:24:17;;;;;;;12.70;10.25;;;;;;;;;;5013484;28;20256;-92
2023/09/03 06:26:45;;;;;;;14.23;11.57;;;;;;;;;;4994851;28;20295;-92
2023/09/03 06:29:12;;;;;;;13.80;10.80;;;;;;;;;;5008601;28;20196;-92
2023/09/03 06:31:40;;;;;;;13.18;10.85;;;;;;;;;;5014255;28;20208;-92
2023/09/03 06:34:09;;;;;;;12.82;10.63;;;;;;;;;;5014691;28;20636;-91
2023/09/03 06:36:36;;;;;;;12.38;9.07;;;;;;;;;;5014237;28;20312;-92
2023/09/03 06:39:04;;;;;;;11.77;9.75;;;;;;;;;;5014344;28;20657;-92
2023/09/03 06:41:31;;;;;;;10.43;8.93;;;;;;;;;;5013992;28;20272;-92
2023/09/03 06:43:58;;;;;;;10.75;9.02;;;;;;;;;;4997313;28;20197;-93
2023/09/03 06:46:26;;;;;;;10.60;8.13;;;;;;;;;;5014587;28;20564;-93
2023/09/03 06:48:55;;;;;;;10.00;7.95;;;;;;;;;;5014270;28;20208;-94
2023/09/03 06:51:23;;;;;;;8.57;7.68;;;;;;;;;;4997709;28;20648;-95
2023/09/03 06:53:51;;;;;;;9.45;7.75;;;;;;;;;;4995160;28;20206;-94
2023/09/03 06:56:18;;;;;;;8.85;7.22;;;;;;;;;;4998768;28;20201;-95
2023/09/03 06:58:45;;;;;;;9.80;7.00;;;;;;;;;;4997364;28;20233;-94
2023/09/03 07:01:14;;;;;;;6.50;5.90;;;;;;;;;;4996024;28;20233;-94
2023/09/03 07:03:42;;;;;;;6.70;5.75;;;;;;;;;;4995127;28;20289;-95
2023/09/03 07:06:09;;;;;;;6.95;6.25;;;;;;;;;;4994936;28;20202;-94
2023/09/03 07:08:38;;;;;;;6.88;5.40;;;;;;;;;;5004434;28;21407;-91
2023/09/03 07:11:05;;;;;;;7.15;5.65;;;;;;;;;;5013849;28;20205;-90
2023/09/03 07:13:32;;;;;;;6.47;5.70;;;;;;;;;;5013700;28;20205;-93
2023/09/03 07:16:04;;;;;;;7.25;5.72;;;;;;;;;;5009106;28;20626;-92
2023/09/03 07:18:31;;;;;;;8.80;5.35;;;;;;;;;;5013965;28;20209;-92
2023/09/03 07:21:05;;;;;;;5.60;5.10;;;;;;;;;;5013787;28;20201;-91
2023/09/03 07:23:32;;;;;;;6.30;5.05;;;;;;;;;;4994992;28;20265;-91
2023/09/03 07:26:03;;;;;;;5.00;4.45;;;;;;;;;;4994547;28;20257;-92
2023/09/03 07:28:31;;;;;;;5.28;4.50;;;;;;;;;;4997036;28;20256;-91
2023/09/03 07:30:58;;;;;;;4.95;4.45;;;;;;;;;;5004637;28;20229;-92
2023/09/03 07:33:25;;;;;;;6.03;4.72;;;;;;;;;;4996352;28;20202;-92
2023/09/03 07:35:53;;;;;;;4.63;4.22;;;;;;;;;;4994606;28;20198;-92
2023/09/03 07:38:21;;;;;;;5.90;4.68;;;;;;;;;;4993844;28;20198;-92
2023/09/03 07:40:48;;;;;;;5.57;4.40;;;;;;;;;;5012553;28;20284;-92
2023/09/03 07:43:17;;;;;;;5.25;4.03;;;;;;;;;;5013163;28;20207;-90
2023/09/03 07:45:44;;;;;;;4.97;4.13;;;;;;;;;;5013374;28;20616;-92
2023/09/03 07:48:11;;;;;;;4.00;3.70;;;;;;;;;;5013704;28;20201;-93
2023/09/03 07:50:39;;;;;;;3.80;3.50;;;;;;;;;;5015595;28;20572;-92
2023/09/03 07:53:06;;;;;;;4.82;3.75;;;;;;;;;;5017132;28;20251;-91
2023/09/03 07:55:34;;;;;;;3.80;3.50;;;;;;;;;;5016396;28;20197;-92
2023/09/03 07:58:01;;;;;;;5.70;3.92;;;;;;;;;;5017168;28;20201;-92
2023/09/03 08:00:30;;;;;;;4.57;3.42;;;;;;;;;;5016239;28;20312;-92
2023/09/03 08:02:57;;;;;;;5.43;3.25;;;;;;;;;;5017436;28;20271;-93
2023/09/03 08:05:24;;;;;;;4.90;3.88;;;;;;;;;;5016288;28;20237;-93
2023/09/03 08:07:52;;;;;;;4.07;3.20;;;;;;;;;;5016550;28;20213;-91
2023/09/03 08:10:19;;;;;;;3.17;2.85;;;;;;;;;;5015957;28;20292;-94
2023/09/03 08:15:32;;;;;;;4.43;2.35;;;;;;;;;;5009572;28;20311;-93
2023/09/03 08:18:02;;;;;;;2.83;2.60;;;;;;;;;;5018996;28;20193;-92
2023/09/03 08:20:30;;;;;;;3.10;2.20;;;;;;;;;;5015749;28;20229;-91
2023/09/03 08:22:57;;;;;;;3.63;2.08;;;;;;;;;;5015426;28;20201;-95
2023/09/03 08:25:24;;;;;;;2.45;2.25;;;;;;;;;;4997253;28;20206;-94
2023/09/03 08:27:51;;;;;;;3.13;2.17;;;;;;;;;;4996509;28;20293;-95
2023/09/03 08:30:19;;;;;;;2.35;2.15;;;;;;;;;;4996921;28;20201;-95
2023/09/03 08:32:47;;;;;;;2.42;2.22;;;;;;;;;;4997281;28;20198;-96
2023/09/03 08:35:15;;;;;;;4.03;2.45;;;;;;;;;;5010057;28;20667;-94
2023/09/03 08:37:42;;;;;;;3.05;2.08;;;;;;;;;;4996611;28;20232;-95
2023/09/03 08:40:10;;;;;;;2.35;2.15;;;;;;;;;;4979459;28;20284;-94
2023/09/03 08:42:40;;;;;;;3.42;2.08;;;;;;;;;;4996483;28;20667;-95
2023/09/03 08:45:09;;;;;;;4.63;2.40;;;;;;;;;;4996459;28;20651;-95
2023/09/03 08:47:39;;;;;;;3.25;2.05;;;;;;;;;;5015714;28;20209;-94
2023/09/03 08:50:09;;;;;;;3.15;1.92;;;;;;;;;;5016507;28;20280;-94
2023/09/03 08:52:37;;;;;;;2.20;2.00;;;;;;;;;;5014658;28;20267;-95
2023/09/03 08:55:06;;;;;;;2.58;2.00;;;;;;;;;;5015536;28;20205;-95
2023/09/03 08:57:34;;;;;;;2.63;2.00;;;;;;;;;;5015659;28;20217;-93
2023/09/03 09:00:03;;;;;;;4.47;2.05;;;;;;;;;;5015485;28;20303;-94
2023/09/03 09:02:32;;;;;;;3.03;2.00;;;;;;;;;;5015036;28;20193;-94
2023/09/03 09:04:59;;;;;;;3.00;2.10;;;;;;;;;;5017475;28;20189;-94
2023/09/03 09:07:28;;;;;;;2.83;1.90;;;;;;;;;;5017325;28;20235;-94
2023/09/03 09:09:58;;;;;;;3.42;2.20;;;;;;;;;;5018567;28;20225;-94
2023/09/03 09:12:28;;;;;;;3.08;2.00;;;;;;;;;;5000076;28;20211;-93
2023/09/03 09:15:01;;;;;;;3.50;1.95;;;;;;;;;;5016992;28;20207;-94
2023/09/03 09:17:29;;;;;;;3.05;2.17;;;;;;;;;;5017492;28;20646;-94
2023/09/03 09:19:59;;;;;;;2.65;1.98;;;;;;;;;;5017008;28;20217;-93
2023/09/03 09:22:28;;;;;;;2.10;1.90;;;;;;;;;;5016623;28;20228;-93
2023/09/03 09:24:56;;;;;;;2.65;1.98;;;;;;;;;;5017170;28;20611;-93
2023/09/03 09:27:24;;;;;;;3.75;2.13;;;;;;;;;;5017412;28;20776;-94
2023/09/03 09:29:51;;;;;;;3.42;2.35;;;;;;;;;;5017461;28;20203;-93
2023/09/03 09:32:19;;;;;;;3.88;2.05;;;;;;;;;;5016300;28;20254;-93
2023/09/03 09:34:46;;;;;;;4.07;2.30;;;;;;;;;;5016501;28;20200;-93
2023/09/03 09:37:14;;;;;;;2.97;2.05;;;;;;;;;;5016648;28;20232;-93
2023/09/03 09:39:46;;;;;;;3.17;2.10;;;;;;;;;;5004871;28;20269;-93
2023/09/03 09:42:18;;;;;;;3.38;2.20;;;;;;;;;;5015952;28;20627;-93
2023/09/03 09:44:59;;;;;;;2.53;2.30;;;;;;;;;;4666793;28;9999982;-92
2023/09/03 09:47:26;;;;;;;2.38;2.10;;;;;;;;;;5014778;28;20219;-92
2023/09/03 09:49:54;;;;;;;2.45;1.90;;;;;;;;;;5016680;28;20243;-92
2023/09/03 09:52:21;;;;;;;2.47;2.17;;;;;;;;;;5015694;28;20571;-91
2023/09/03 09:54:50;;;;;;;2.28;2.03;;;;;;;;;;5014908;28;20204;-91
2023/09/03 09:57:19;;;;;;;2.55;2.03;;;;;;;;;;5012847;28;20654;-92
2023/09/03 09:59:52;;;;;;;2.83;2.08;;;;;;;;;;5013736;28;20239;-92
2023/09/03 10:02:20;;;;;;;2.20;2.00;;;;;;;;;;5013253;28;20294;-92
2023/09/03 10:04:48;;;;;;;2.20;2.00;;;;;;;;;;5008928;28;20872;-92
2023/09/03 10:07:15;;;;;;;3.45;2.15;;;;;;;;;;5013823;28;20232;-91
2023/09/03 10:09:43;;;;;;;3.22;1.90;;;;;;;;;;5014891;28;20227;-92
2023/09/03 10:12:13;;;;;;;4.40;2.00;;;;;;;;;;5014667;28;20609;-91
2023/09/03 10:14:41;;;;;;;2.30;2.10;;;;;;;;;;5014929;28;20200;-92
2023/09/03 10:17:09;;;;;;;3.03;2.10;;;;;;;;;;5014804;28;20196;-90
2023/09/03 10:19:40;;;;;;;2.80;2.00;;;;;;;;;;5014545;28;20247;-91
2023/09/03 10:22:08;;;;;;;2.25;2.05;;;;;;;;;;5013995;28;20292;-90
2023/09/03 10:24:36;;;;;;;5.10;2.08;;;;;;;;;;5014040;28;20200;-89
2023/09/03 10:27:05;;;;;;;2.55;2.30;;;;;;;;;;5014464;28;20248;-91
2023/09/03 10:29:34;;;;;;;3.28;2.28;;;;;;;;;;5013049;28;20209;-91
2023/09/03 10:32:02;;;;;;;2.35;1.90;;;;;;;;;;5007088;28;20233;-91
2023/09/03 10:34:30;;;;;;;3.90;1.90;;;;;;;;;;4994471;28;20236;-91
2023/09/03 10:37:04;;;;;;;3.55;1.85;;;;;;;;;;5000204;28;20215;-94
2023/09/03 10:39:32;;;;;;;3.55;2.10;;;;;;;;;;5014169;28;20254;-92
2023/09/03 10:42:17;;;;;;;2.63;2.10;;;;;;;;;;5013088;28;20566;-92
2023/09/03 10:44:51;;;;;;;3.53;2.00;;;;;;;;;;5014178;28;20243;-91
2023/09/03 10:47:19;;;;;;;2.45;2.00;;;;;;;;;;5014147;28;20669;-92
2023/09/03 10:49:46;;;;;;;3.42;2.00;;;;;;;;;;5013339;28;20208;-91
2023/09/03 10:52:37;;;;;;;3.13;2.10;;;;;;;;;;5015607;28;20244;-91
2023/09/03 10:55:12;;;;;;;2.30;1.90;;;;;;;;;;5013473;28;20618;-89
2023/09/03 10:57:39;;;;;;;3.20;2.08;;;;;;;;;;5014080;28;20204;-91
2023/09/03 11:00:17;;;;;;;3.75;2.03;;;;;;;;;;5013707;28;20251;-90
2023/09/03 11:02:44;;;;;;;3.30;2.13;;;;;;;;;;5013627;28;20212;-89
2023/09/03 11:05:11;;;;;;;3.20;2.20;;;;;;;;;;5013809;28;20223;-91
2023/09/03 11:07:39;;;;;;;3.35;2.10;;;;;;;;;;5013115;28;20223;-89
2023/09/03 11:10:27;;;;;;;2.75;2.15;;;;;;;;;;5013417;28;20232;-91
2023/09/03 11:12:55;;;;;;;2.83;2.13;;;;;;;;;;5013667;28;20998;-91
2023/09/03 11:15:24;;;;;;;3.42;2.22;;;;;;;;;;5013951;28;20680;-92
2023/09/03 11:17:51;;;;;;;2.80;2.20;;;;;;;;;;5013453;28;20232;-93
2023/09/03 11:20:28;;;;;;;2.40;2.20;;;;;;;;;;5015665;28;20732;-93
2023/09/03 11:22:56;;;;;;;3.25;2.05;;;;;;;;;;5017038;28;20288;-92
2023/09/03 11:25:32;;;;;;;4.53;2.40;;;;;;;;;;5014519;28;20275;-93
2023/09/03 11:27:59;;;;;;;3.55;2.60;;;;;;;;;;5017419;28;20661;-93
2023/09/03 11:30:28;;;;;;;4.72;4.25;;;;;;;;;;5018047;28;20254;-93
2023/09/03 11:32:56;;;;;;;4.60;3.30;;;;;;;;;;5018618;28;20274;-95
2023/09/03 11:35:23;;;;;;;3.78;2.70;;;;;;;;;;5017547;28;20197;-94
2023/09/03 11:37:51;;;;;;;5.35;3.80;;;;;;;;;;5018157;28;20282;-93
2023/09/03 11:40:19;;;;;;;3.70;3.40;;;;;;;;;;5018158;28;20267;-93
2023/09/03 11:42:49;;;;;;;6.22;5.65;;;;;;;;;;5018166;28;20239;-94
2023/09/03 11:45:18;;;;;;;10.98;10.07;;;;;;;;;;5018073;28;20197;-94
2023/09/03 11:47:50;;;;;;;10.63;9.80;;;;;;;;;;5018232;28;20204;-94
2023/09/03 11:50:18;;;;;;;3.65;2.83;;;;;;;;;;5018540;28;20232;-93
2023/09/03 11:52:48;;;;;;;3.95;2.92;;;;;;;;;;4998889;28;20205;-94
2023/09/03 11:55:16;;;;;;;13.68;12.57;;;;;;;;;;4998426;28;20201;-93
2023/09/03 11:57:44;;;;;;;6.50;5.90;;;;;;;;;;4997951;28;20234;-93
2023/09/03 12:00:13;;;;;;;2.53;2.30;;;;;;;;;;4999426;28;20269;-91
2023/09/03 12:02:40;;;;;;;3.67;2.90;;;;;;;;;;4999479;28;20247;-92
2023/09/03 12:05:09;;;;;;;3.13;2.80;;;;;;;;;;5003227;28;20213;-89
2023/09/03 12:07:37;;;;;;;4.65;4.25;;;;;;;;;;4998651;28;20205;-91
2023/09/03 12:10:04;;;;;;;4.90;3.58;;;;;;;;;;5004651;28;20208;-91
2023/09/03 12:12:32;;;;;;;5.57;4.72;;;;;;;;;;5001310;28;20267;-91
2023/09/03 12:14:59;;;;;;;4.03;3.65;;;;;;;;;;5000582;28;20236;-91
2023/09/03 12:17:27;;;;;;;4.95;2.30;;;;;;;;;;5007230;28;20208;-90
2023/09/03 12:19:54;;;;;;;7.30;6.70;;;;;;;;;;5019264;28;20196;-91
2023/09/03 12:22:23;;;;;;;5.25;3.95;;;;;;;;;;5021423;28;20512;-92
2023/09/03 12:24:51;;;;;;;8.95;8.00;;;;;;;;;;5021460;28;20235;-91
2023/09/03 12:27:18;;;;;;;11.73;10.63;;;;;;;;;;5017815;28;20666;-92
2023/09/03 12:29:46;;;;;;;11.70;10.50;;;;;;;;;;5016976;28;20204;-90
2023/09/03 12:32:16;;;;;;;4.90;3.80;;;;;;;;;;5016783;28;20251;-91
2023/09/03 12:34:49;;;;;;;2.75;2.35;;;;;;;;;;5016766;28;20905;-92
2023/09/03 12:37:16;;;;;;;2.70;2.28;;;;;;;;;;5016772;28;20207;-92
2023/09/03 12:39:45;;;;;;;4.18;2.13;;;;;;;;;;5017479;28;20193;-92
2023/09/03 12:42:12;;;;;;;3.03;2.10;;;;;;;;;;5017165;28;20697;-93
2023/09/03 12:44:43;;;;;;;3.00;2.40;;;;;;;;;;5017381;28;20207;-93
2023/09/03 12:47:10;;;;;;;2.40;2.20;;;;;;;;;;5017137;28;20223;-90
2023/09/03 12:49:37;;;;;;;2.50;2.30;;;;;;;;;;5017485;28;20638;-91
2023/09/03 12:52:05;;;;;;;2.60;2.13;;;;;;;;;;5017582;28;20229;-92
2023/09/03 12:54:34;;;;;;;2.55;2.35;;;;;;;;;;5017219;28;20201;-93
2023/09/03 12:57:03;;;;;;;4.88;2.60;;;;;;;;;;5016964;28;20204;-91
2023/09/03 12:59:30;;;;;;;2.75;2.08;;;;;;;;;;5013263;28;20703;-92
2023/09/03 13:01:57;;;;;;;2.40;2.10;;;;;;;;;;5015806;28;20808;-91
2023/09/03 13:04:24;;;;;;;3.10;2.75;;;;;;;;;;5016675;28;20201;-91
2023/09/03 13:06:52;;;;;;;3.95;2.50;;;;;;;;;;5016853;28;20224;-91
2023/09/03 13:09:19;;;;;;;2.50;2.15;;;;;;;;;;5024160;28;20235;-91
2023/09/03 13:11:47;;;;;;;5.13;2.55;;;;;;;;;;5030499;28;20224;-92
2023/09/03 13:14:15;;;;;;;4.03;2.40;;;;;;;;;;5016814;28;20264;-91
2023/09/03 13:16:43;;;;;;;3.33;2.40;;;;;;;;;;5015481;28;20727;-91
2023/09/03 13:19:10;;;;;;;2.40;2.20;;;;;;;;;;5016958;28;20288;-91
2023/09/03 13:21:37;;;;;;;3.60;2.30;;;;;;;;;;5008616;28;20299;-91
2023/09/03 13:24:05;;;;;;;3.42;2.60;;;;;;;;;;4997287;28;20224;-91
2023/09/03 13:26:33;;;;;;;4.50;2.30;;;;;;;;;;4997114;28;20235;-92
2023/09/03 13:29:00;;;;;;;3.25;2.30;;;;;;;;;;4997040;28;20201;-91
2023/09/03 13:31:29;;;;;;;2.67;2.20;;;;;;;;;;5005256;28;20236;-92
2023/09/03 13:33:56;;;;;;;2.95;2.55;;;;;;;;;;5009447;28;20245;-91
2023/09/03 13:36:24;;;;;;;4.85;2.30;;;;;;;;;;4996438;28;20734;-91
2023/09/03 13:38:51;;;;;;;4.32;2.30;;;;;;;;;;5010921;28;20284;-91
2023/09/03 13:41:19;;;;;;;2.75;2.55;;;;;;;;;;5016086;28;20235;-91
2023/09/03 13:43:47;;;;;;;2.78;2.42;;;;;;;;;;5013263;28;20204;-92
2023/09/03 13:46:14;;;;;;;2.85;2.35;;;;;;;;;;5012012;28;20193;-92
2023/09/03 13:48:43;;;;;;;4.53;2.45;;;;;;;;;;5002707;28;20199;-91
2023/09/03 13:51:11;;;;;;;3.22;2.22;;;;;;;;;;4996213;28;20202;-91
2023/09/03 13:53:39;;;;;;;2.47;2.28;;;;;;;;;;4996101;28;20288;-90
2023/09/03 13:56:06;;;;;;;2.53;2.33;;;;;;;;;;5011583;28;20262;-90
2023/09/03 13:58:34;;;;;;;2.53;2.33;;;;;;;;;;5015518;28;20246;-92
2023/09/03 14:01:01;;;;;;;2.00;1.80;;;;;;;;;;5014514;28;20240;-89
2023/09/03 14:03:28;;;;;;;3.03;2.30;;;;;;;;;;5015090;28;20331;-89
2023/09/03 14:06:05;;;;;;;3.30;2.50;;;;;;;;;;5015593;28;20228;-94
2023/09/03 14:08:32;;;;;;;3.88;2.30;;;;;;;;;;5013998;28;20224;-87
2023/09/03 14:11:00;;;;;;;3.63;2.50;;;;;;;;;;5013847;28;20232;-86
2023/09/03 14:13:28;;;;;;;2.38;2.17;;;;;;;;;;5013921;28;20247;-88
2023/09/03 14:15:56;;;;;;;3.55;2.20;;;;;;;;;;5013581;28;20200;-87
2023/09/03 14:18:23;;;;;;;3.13;2.38;;;;;;;;;;5013378;28;20240;-89
2023/09/03 14:20:51;;;;;;;3.95;2.38;;;;;;;;;;5013328;28;20229;-89
2023/09/03 14:23:19;;;;;;;3.90;2.25;;;;;;;;;;5013729;28;20205;-88
2023/09/03 14:25:47;;;;;;;3.42;2.20;;;;;;;;;;5013993;28;20255;-88
2023/09/03 14:28:15;;;;;;;2.85;2.05;;;;;;;;;;5013635;28;20207;-88
2023/09/03 14:30:42;;;;;;;2.65;2.30;;;;;;;;;;5014005;28;20211;-90
2023/09/03 14:33:09;;;;;;;2.83;2.30;;;;;;;;;;5007221;28;20197;-90
2023/09/03 14:35:37;;;;;;;3.55;2.50;;;;;;;;;;4984850;28;20320;-87
2023/09/03 14:38:04;;;;;;;2.60;2.40;;;;;;;;;;4984878;28;20280;-89
2023/09/03 14:40:32;;;;;;;2.53;2.30;;;;;;;;;;5014261;28;20208;-87
2023/09/03 14:43:00;;;;;;;3.00;2.28;;;;;;;;;;5013067;28;20678;-88